Time;durP1;ratioP1;P1;durP2;ratioP2;P2;SDS_P1;SDS_P2;PMS_P1;PMS_P2;Temp;Humidity;BMP_temperature;BMP_pressure;BME280_temperature;BME280_humidity;BME280_pressure;Samples;Min_cycle;Max_cycle;Signal;HPM_P1;HPM_P2
2022/08/23 00:00:59;;;;;;;0.60;0.60;;;;;;;-144.22;100.00;60274.75;7614871;23;20549;-69
2022/08/23 00:04:07;;;;;;;1.23;0.50;;;;;;;-144.22;100.00;60274.75;7547042;23;20360;-68
2022/08/23 00:07:13;;;;;;;0.70;0.60;;;;;;;-144.22;100.00;60274.75;7579286;23;20217;-69
2022/08/23 00:10:16;;;;;;;0.93;0.53;;;;;;;-144.22;100.00;60274.75;7579898;23;20288;-71
2022/08/23 00:13:18;;;;;;;0.57;0.50;;;;;;;-144.22;100.00;60274.75;7578077;23;20216;-69
2022/08/23 00:16:21;;;;;;;0.50;0.50;;;;;;;-144.22;100.00;60274.75;7601707;23;20566;-67
2022/08/23 00:19:24;;;;;;;2.73;0.80;;;;;;;-144.22;100.00;60274.75;7579544;23;20602;-67
2022/08/23 00:22:26;;;;;;;0.50;0.50;;;;;;;-144.22;100.00;60274.75;7578122;23;20293;-67
2022/08/23 00:25:28;;;;;;;0.97;0.70;;;;;;;-144.22;100.00;60274.75;7578919;23;20299;-66
2022/08/23 00:28:30;;;;;;;0.60;0.60;;;;;;;-144.22;100.00;60274.75;7578211;23;20236;-66
2022/08/23 00:31:33;;;;;;;0.50;0.50;;;;;;;-144.22;100.00;60274.75;7577572;23;20592;-66
2022/08/23 00:34:37;;;;;;;0.50;0.50;;;;;;;-144.22;100.00;60274.75;7578559;23;20536;-66
2022/08/23 00:37:40;;;;;;;2.37;0.70;;;;;;;-144.22;100.00;60274.75;7576944;23;20589;-66
2022/08/23 00:40:44;;;;;;;1.90;0.60;;;;;;;-144.22;100.00;60274.75;7578439;23;20213;-66
2022/08/23 00:50:39;;;;;;;0.60;0.60;;;;;;;-144.22;100.00;60274.75;7576767;23;20220;-67
2022/08/23 00:53:46;;;;;;;1.00;0.40;;;;;;;-144.22;100.00;60274.75;7578789;23;20209;-67
2022/08/23 00:56:50;;;;;;;0.50;0.50;;;;;;;-144.22;100.00;60274.75;7577507;23;20596;-67
2022/08/23 00:59:52;;;;;;;0.40;0.40;;;;;;;-144.22;100.00;60274.75;7579216;23;20726;-66
2022/08/23 01:02:55;;;;;;;0.73;0.60;;;;;;;-144.22;100.00;60274.75;7431929;23;20224;-66
2022/08/23 01:06:01;;;;;;;0.73;0.73;;;;;;;-144.22;100.00;60274.75;7562900;23;20212;-67
2022/08/23 01:09:15;;;;;;;0.70;0.70;;;;;;;-144.22;100.00;60274.75;7613888;23;20220;-67
2022/08/23 01:12:23;;;;;;;0.50;0.50;;;;;;;-144.22;100.00;60274.75;7614633;23;20176;-66
2022/08/23 01:16:00;;;;;;;0.80;0.80;;;;;;;-144.22;100.00;60274.75;7614280;23;20661;-67
2022/08/23 01:19:06;;;;;;;0.70;0.70;;;;;;;-144.22;100.00;60274.75;7608111;23;20208;-67
2022/08/23 01:22:35;;;;;;;0.60;0.60;;;;;;;-144.22;100.00;60274.75;7613561;23;20212;-67
2022/08/23 01:25:39;;;;;;;0.80;0.80;;;;;;;-144.22;100.00;60274.75;7581677;23;20292;-66
2022/08/23 01:28:41;;;;;;;1.60;0.83;;;;;;;-144.22;100.00;60274.75;7614780;23;20807;-66
2022/08/23 01:31:48;;;;;;;0.57;0.57;;;;;;;-144.22;100.00;60274.75;7612952;23;20232;-67
2022/08/23 01:34:51;;;;;;;0.60;0.60;;;;;;;-144.22;100.00;60274.75;7588542;23;20293;-67
2022/08/23 01:37:53;;;;;;;0.67;0.67;;;;;;;-144.22;100.00;60274.75;7589130;23;20219;-66
2022/08/23 01:40:55;;;;;;;0.67;0.67;;;;;;;-144.22;100.00;60274.75;7588446;23;20212;-67
2022/08/23 01:43:57;;;;;;;0.73;0.73;;;;;;;-144.22;100.00;60274.75;7588488;23;20216;-66
2022/08/23 01:47:01;;;;;;;0.60;0.60;;;;;;;-144.22;100.00;60274.75;7588638;23;20219;-65
2022/08/23 01:50:04;;;;;;;1.27;0.80;;;;;;;-144.22;100.00;60274.75;7586830;23;20716;-66
2022/08/23 01:53:06;;;;;;;0.67;0.67;;;;;;;-144.22;100.00;60274.75;7588019;23;20698;-67
2022/08/23 01:56:09;;;;;;;1.90;0.70;;;;;;;-144.22;100.00;60274.75;7589208;23;20209;-66
2022/08/23 01:59:12;;;;;;;0.40;0.40;;;;;;;-144.22;100.00;60274.75;7588309;23;20208;-67
2022/08/23 02:02:18;;;;;;;0.70;0.70;;;;;;;-144.22;100.00;60274.75;7587979;23;20209;-66
2022/08/23 02:05:21;;;;;;;0.80;0.77;;;;;;;-144.22;100.00;60274.75;7616150;23;20220;-65
2022/08/23 02:11:46;;;;;;;1.90;1.00;;;;;;;-144.22;100.00;60274.75;7589822;23;20611;-65
2022/08/23 02:14:48;;;;;;;0.80;0.80;;;;;;;-144.22;100.00;60274.75;7616643;23;20270;-64
2022/08/23 02:17:55;;;;;;;1.87;1.03;;;;;;;-144.22;100.00;60274.75;7591204;23;20361;-64
2022/08/23 02:20:57;;;;;;;4.23;1.67;;;;;;;-144.22;100.00;60274.75;7590716;23;20585;-64
2022/08/23 02:24:14;;;;;;;4.50;1.50;;;;;;;-144.22;100.00;60274.75;7590170;23;20208;-64
2022/08/23 02:27:16;;;;;;;1.70;1.10;;;;;;;-144.22;100.00;60274.75;7588092;23;20212;-64
2022/08/23 02:30:19;;;;;;;1.73;0.97;;;;;;;-144.22;100.00;60274.75;7589861;23;20497;-65
2022/08/23 02:33:21;;;;;;;2.43;1.13;;;;;;;-144.22;100.00;60274.75;7615469;23;20611;-65
2022/08/23 02:36:23;;;;;;;2.50;0.90;;;;;;;-144.22;100.00;60274.75;7589015;23;20231;-65
2022/08/23 02:39:27;;;;;;;1.00;1.00;;;;;;;-144.22;100.00;60274.75;7589364;23;20210;-65
2022/08/23 02:42:29;;;;;;;1.20;1.03;;;;;;;-144.22;100.00;60274.75;7590423;23;20656;-66
2022/08/23 02:45:33;;;;;;;1.93;1.03;;;;;;;-144.22;100.00;60274.75;7590388;23;20538;-65
2022/08/23 02:48:36;;;;;;;1.20;1.10;;;;;;;-144.22;100.00;60274.75;7588610;23;20217;-64
2022/08/23 02:51:40;;;;;;;1.37;1.20;;;;;;;-144.22;100.00;60274.75;7588345;23;20204;-64
2022/08/23 02:54:43;;;;;;;2.07;1.17;;;;;;;-144.22;100.00;60274.75;7615354;23;20287;-64
2022/08/23 02:57:45;;;;;;;0.90;0.90;;;;;;;-144.22;100.00;60274.75;7590816;23;20212;-65
2022/08/23 03:00:48;;;;;;;2.23;1.40;;;;;;;-144.22;100.00;60274.75;7615821;23;20290;-65
2022/08/23 03:03:51;;;;;;;2.27;1.40;;;;;;;-144.22;100.00;60274.75;7613866;23;20673;-65
2022/08/23 03:06:54;;;;;;;0.90;0.90;;;;;;;-144.22;100.00;60274.75;7615481;23;20219;-65
2022/08/23 03:09:57;;;;;;;1.50;1.40;;;;;;;-144.22;100.00;60274.75;7589200;23;20249;-65
2022/08/23 03:13:01;;;;;;;1.30;1.20;;;;;;;-144.22;100.00;60274.75;7589372;23;20209;-64
2022/08/23 03:16:03;;;;;;;1.30;1.20;;;;;;;-144.22;100.00;60274.75;7615704;23;20240;-65
2022/08/23 03:19:06;;;;;;;1.90;1.60;;;;;;;-144.22;100.00;60274.75;7589119;23;20672;-65
2022/08/23 03:22:08;;;;;;;1.80;1.50;;;;;;;-144.22;100.00;60274.75;7615416;23;20688;-65
2022/08/23 03:25:11;;;;;;;1.40;1.30;;;;;;;-144.22;100.00;60274.75;7615276;23;20246;-65
2022/08/23 03:28:45;;;;;;;2.53;2.30;;;;;;;-144.22;100.00;60274.75;7591970;23;20247;-65
2022/08/23 03:31:47;;;;;;;3.30;1.70;;;;;;;-144.22;100.00;60274.75;7587696;23;20212;-65
2022/08/23 03:34:50;;;;;;;1.50;1.40;;;;;;;-144.22;100.00;60274.75;7589563;23;20215;-65
2022/08/23 03:37:53;;;;;;;1.60;1.50;;;;;;;-144.22;100.00;60274.75;7591026;23;20236;-65
2022/08/23 03:40:57;;;;;;;1.40;1.30;;;;;;;-144.22;100.00;60274.75;7588157;23;20218;-65
2022/08/23 03:43:59;;;;;;;1.30;1.20;;;;;;;-144.22;100.00;60274.75;7590798;23;20208;-65
2022/08/23 03:47:04;;;;;;;2.57;1.70;;;;;;;-144.22;100.00;60274.75;7589918;23;20219;-65
2022/08/23 03:50:07;;;;;;;1.97;1.60;;;;;;;-144.22;100.00;60274.75;7590786;23;20216;-65
2022/08/23 03:53:11;;;;;;;1.40;1.30;;;;;;;-144.22;100.00;60274.75;7589472;23;20216;-65
2022/08/23 03:56:32;;;;;;;1.53;1.43;;;;;;;-144.22;100.00;60274.75;7614993;23;20209;-65
2022/08/23 03:59:36;;;;;;;4.13;1.60;;;;;;;-144.22;100.00;60274.75;7596414;23;20208;-66
2022/08/23 04:02:41;;;;;;;2.07;1.50;;;;;;;-144.22;100.00;60274.75;7588120;23;20251;-66
2022/08/23 04:05:45;;;;;;;2.10;1.93;;;;;;;-144.22;100.00;60274.75;7566013;23;20208;-67
2022/08/23 04:08:55;;;;;;;1.60;1.50;;;;;;;-144.22;100.00;60274.75;7587662;23;20295;-66
2022/08/23 04:11:57;;;;;;;3.63;1.70;;;;;;;-144.22;100.00;60274.75;7590300;23;20220;-66
2022/08/23 04:14:59;;;;;;;5.73;1.83;;;;;;;-144.22;100.00;60274.75;7614983;23;20703;-66
2022/08/23 04:18:07;;;;;;;2.50;1.60;;;;;;;-144.22;100.00;60274.75;7588648;23;20197;-66
2022/08/23 04:21:17;;;;;;;2.27;1.50;;;;;;;-144.22;100.00;60274.75;7590209;23;20713;-66
2022/08/23 04:24:20;;;;;;;1.90;1.70;;;;;;;-144.22;100.00;60274.75;7587723;23;20676;-66
2022/08/23 04:27:22;;;;;;;1.80;1.70;;;;;;;-144.22;100.00;60274.75;7588268;23;20208;-66
2022/08/23 04:30:25;;;;;;;2.23;1.83;;;;;;;-144.22;100.00;60274.75;7587242;23;20283;-66
2022/08/23 04:33:30;;;;;;;2.17;1.97;;;;;;;-144.22;100.00;60274.75;7589088;23;20212;-66
2022/08/23 04:36:36;;;;;;;2.30;2.10;;;;;;;-144.22;100.00;60274.75;7614360;23;20210;-66
2022/08/23 04:43:07;;;;;;;2.20;2.10;;;;;;;-144.22;100.00;60274.75;7587949;23;20555;-67
2022/08/23 04:46:09;;;;;;;2.50;2.30;;;;;;;-144.22;100.00;60274.75;7588319;23;20487;-67
2022/08/23 04:49:12;;;;;;;2.50;2.40;;;;;;;-144.22;100.00;60274.75;7588807;23;20763;-67
2022/08/23 04:52:14;;;;;;;2.80;2.60;;;;;;;-144.22;100.00;60274.75;7588948;23;20574;-67
2022/08/23 04:55:21;;;;;;;2.90;2.70;;;;;;;-144.22;100.00;60274.75;7612910;23;20208;-68
2022/08/23 04:58:26;;;;;;;3.27;2.97;;;;;;;-144.22;100.00;60274.75;7613476;23;20286;-66
2022/08/23 05:01:28;;;;;;;3.23;2.70;;;;;;;-144.22;100.00;60274.75;7585244;23;20228;-67
2022/08/23 05:04:30;;;;;;;3.37;3.07;;;;;;;-144.22;100.00;60274.75;7586789;23;20213;-66
2022/08/23 05:07:34;;;;;;;2.80;2.60;;;;;;;-144.22;100.00;60274.75;7587284;23;20217;-67
2022/08/23 05:10:44;;;;;;;3.10;2.90;;;;;;;-144.22;100.00;60274.75;7614252;23;20224;-67
2022/08/23 05:13:47;;;;;;;2.90;2.70;;;;;;;-144.22;100.00;60274.75;7588752;23;20413;-67
2022/08/23 05:16:49;;;;;;;2.90;2.70;;;;;;;-144.22;100.00;60274.75;7613183;23;20212;-67
2022/08/23 05:19:51;;;;;;;3.00;2.80;;;;;;;-144.22;100.00;60274.75;7587854;23;20212;-68
2022/08/23 05:22:53;;;;;;;3.13;2.93;;;;;;;-144.22;100.00;60274.75;7611519;23;20291;-66
2022/08/23 05:26:02;;;;;;;3.30;3.10;;;;;;;-144.22;100.00;60274.75;7587927;23;20629;-67
2022/08/23 05:29:09;;;;;;;3.17;2.87;;;;;;;-144.22;100.00;60274.75;7586960;23;20235;-66
2022/08/23 05:32:17;;;;;;;3.03;2.83;;;;;;;-144.22;100.00;60274.75;7586945;23;20208;-66
2022/08/23 05:35:20;;;;;;;3.07;2.77;;;;;;;-144.22;100.00;60274.75;7589032;23;20212;-67
2022/08/23 05:38:24;;;;;;;2.60;2.40;;;;;;;-144.22;100.00;60274.75;7591947;23;20215;-67
2022/08/23 05:41:27;;;;;;;2.53;2.33;;;;;;;-144.22;100.00;60274.75;7596264;23;20486;-67
2022/08/23 05:44:42;;;;;;;2.70;2.50;;;;;;;-144.22;100.00;60274.75;7589721;23;20548;-66
2022/08/23 05:47:45;;;;;;;2.23;2.07;;;;;;;-144.22;100.00;60274.75;7589857;23;20555;-66
2022/08/23 05:51:21;;;;;;;2.47;2.27;;;;;;;-144.22;100.00;60274.75;7589131;23;20201;-66
2022/08/23 05:54:23;;;;;;;2.80;2.60;;;;;;;-144.22;100.00;60274.75;7589808;23;20208;-66
2022/08/23 05:57:45;;;;;;;2.70;2.50;;;;;;;-144.22;100.00;60274.75;7590413;23;20568;-66
2022/08/23 06:00:47;;;;;;;2.37;2.27;;;;;;;-144.22;100.00;60274.75;7590042;23;20295;-66
2022/08/23 06:03:51;;;;;;;2.10;2.00;;;;;;;-144.22;100.00;60274.75;7589231;23;20551;-67
2022/08/23 06:06:57;;;;;;;2.13;2.03;;;;;;;-144.22;100.00;60274.75;7615804;23;20220;-66
2022/08/23 06:09:59;;;;;;;2.47;2.27;;;;;;;-144.22;100.00;60274.75;7589163;23;20217;-66
2022/08/23 06:13:03;;;;;;;1.93;1.83;;;;;;;-144.22;100.00;60274.75;7589163;23;20213;-66
2022/08/23 06:16:06;;;;;;;2.30;1.80;;;;;;;-144.22;100.00;60274.75;7614616;23;20220;-67
2022/08/23 06:19:18;;;;;;;2.00;1.90;;;;;;;-144.22;100.00;60274.75;7589206;23;20220;-67
2022/08/23 06:22:20;;;;;;;3.83;1.93;;;;;;;-144.22;100.00;60274.75;7589650;23;20299;-66
2022/08/23 06:25:22;;;;;;;2.23;2.03;;;;;;;-144.22;100.00;60274.75;7615300;23;20216;-66
2022/08/23 06:28:44;;;;;;;1.73;1.63;;;;;;;-144.22;100.00;60274.75;7589294;23;20223;-66
2022/08/23 06:31:55;;;;;;;2.20;2.00;;;;;;;-144.22;100.00;60274.75;7589008;23;20212;-67
2022/08/23 06:35:03;;;;;;;2.17;2.07;;;;;;;-144.22;100.00;60274.75;7589014;23;20275;-66
2022/08/23 06:38:33;;;;;;;1.77;1.67;;;;;;;-144.22;100.00;60274.75;7588173;23;20223;-66
2022/08/23 06:41:59;;;;;;;1.60;1.50;;;;;;;-144.22;100.00;60274.75;7588154;23;20219;-66
2022/08/23 06:45:05;;;;;;;2.40;1.53;;;;;;;-144.22;100.00;60274.75;7614601;23;20209;-67
2022/08/23 06:48:21;;;;;;;1.73;1.63;;;;;;;-144.22;100.00;60274.75;7612977;23;20217;-66
2022/08/23 06:51:36;;;;;;;2.30;1.27;;;;;;;-144.22;100.00;60274.75;7588796;23;20589;-67
2022/08/23 06:54:52;;;;;;;1.47;1.37;;;;;;;-144.22;100.00;60274.75;7615167;23;20817;-67
2022/08/23 06:58:00;;;;;;;1.30;1.30;;;;;;;-144.22;100.00;60274.75;7615412;23;20216;-64
2022/08/23 07:01:55;;;;;;;1.60;1.50;;;;;;;-144.22;100.00;60274.75;7618035;23;20216;-63
2022/08/23 07:05:17;;;;;;;1.40;1.30;;;;;;;-144.22;100.00;60274.75;7576825;23;20216;-64
2022/08/23 07:08:37;;;;;;;1.37;1.27;;;;;;;-144.22;100.00;60274.75;7578123;23;20307;-67
2022/08/23 07:11:40;;;;;;;1.03;1.03;;;;;;;-144.22;100.00;60274.75;7576950;23;20556;-63
2022/08/23 07:14:43;;;;;;;2.00;1.20;;;;;;;-144.22;100.00;60274.75;7576046;23;20225;-63
2022/08/23 07:17:46;;;;;;;1.00;1.00;;;;;;;-144.22;100.00;60274.75;7576145;23;20662;-63
2022/08/23 07:20:48;;;;;;;1.90;1.07;;;;;;;-144.22;100.00;60274.75;7578248;23;20688;-62
2022/08/23 07:23:50;;;;;;;1.10;1.10;;;;;;;-144.22;100.00;60274.75;7576121;23;20578;-62
2022/08/23 07:26:52;;;;;;;1.00;1.00;;;;;;;-144.22;100.00;60274.75;7576721;23;20295;-67
2022/08/23 07:29:55;;;;;;;1.17;1.07;;;;;;;-144.22;100.00;60274.75;7578695;23;20217;-59
2022/08/23 07:32:58;;;;;;;1.13;1.03;;;;;;;-144.22;100.00;60274.75;7577337;23;20264;-63
2022/08/23 07:36:03;;;;;;;0.77;0.77;;;;;;;-144.22;100.00;60274.75;7576213;23;20205;-67
2022/08/23 07:39:07;;;;;;;0.90;0.90;;;;;;;-144.22;100.00;60274.75;7577604;23;20657;-66
2022/08/23 07:42:09;;;;;;;1.20;0.70;;;;;;;-144.22;100.00;60274.75;7579170;23;20175;-66
2022/08/23 07:45:27;;;;;;;0.70;0.70;;;;;;;-144.22;100.00;60274.75;7601637;23;20216;-66
2022/08/23 07:48:34;;;;;;;0.70;0.70;;;;;;;-144.22;100.00;60274.75;7553174;23;20224;-66
2022/08/23 07:51:57;;;;;;;0.50;0.50;;;;;;;-144.22;100.00;60274.75;7555611;23;20878;-65
2022/08/23 07:55:00;;;;;;;0.60;0.60;;;;;;;-144.22;100.00;60274.75;7576730;23;20309;-65
2022/08/23 07:58:15;;;;;;;0.60;0.60;;;;;;;-144.22;100.00;60274.75;7574310;23;20221;-65
2022/08/23 08:01:50;;;;;;;0.40;0.40;;;;;;;-144.22;100.00;60274.75;7552300;23;20289;-64
2022/08/23 08:04:52;;;;;;;0.30;0.30;;;;;;;-144.22;100.00;60274.75;7575547;23;20221;-65
2022/08/23 08:07:54;;;;;;;0.40;0.40;;;;;;;-144.22;100.00;60274.75;7575628;23;20216;-66
2022/08/23 08:10:56;;;;;;;0.30;0.30;;;;;;;-144.22;100.00;60274.75;7575835;23;20216;-65
2022/08/23 08:14:00;;;;;;;0.93;0.50;;;;;;;-144.22;100.00;60274.75;7576728;23;20668;-65
2022/08/23 08:17:03;;;;;;;0.40;0.40;;;;;;;-144.22;100.00;60274.75;7599975;23;20669;-66
2022/08/23 08:20:26;;;;;;;0.33;0.33;;;;;;;-144.22;100.00;60274.75;7575037;23;20575;-65
2022/08/23 08:23:44;;;;;;;0.37;0.37;;;;;;;-144.22;100.00;60274.75;7579774;23;20553;-65
2022/08/23 08:27:11;;;;;;;0.73;0.30;;;;;;;-144.22;100.00;60274.75;7575503;23;20209;-66
2022/08/23 08:30:19;;;;;;;0.60;0.60;;;;;;;17.52;81.51;97621.25;6269815;27;20556;-43
2022/08/23 08:33:22;;;;;;;0.87;0.50;;;;;;;17.60;81.68;97630.09;6225028;28;20227;-45
2022/08/23 08:36:46;;;;;;;1.57;0.60;;;;;;;17.79;80.83;97631.59;6224392;28;20555;-44
2022/08/23 08:39:53;;;;;;;0.60;0.60;;;;;;;17.82;79.52;97641.94;6223888;28;20260;-45
2022/08/23 08:43:05;;;;;;;1.13;0.50;;;;;;;17.74;79.74;97649.13;6223420;28;20318;-47
2022/08/23 08:46:21;;;;;;;0.60;0.60;;;;;;;17.66;80.00;97653.50;6224874;28;20262;-43
2022/08/23 08:49:38;;;;;;;1.23;0.80;;;;;;;17.39;80.11;97666.28;6220712;28;20250;-45
2022/08/23 08:53:08;;;;;;;0.83;0.80;;;;;;;17.17;80.59;97665.91;6215655;28;20622;-45
2022/08/23 08:56:53;;;;;;;0.70;0.70;;;;;;;17.05;80.40;97669.09;6215728;28;20236;-45
2022/08/23 09:00:05;;;;;;;1.43;0.77;;;;;;;16.82;81.23;97675.03;6223384;28;20404;-45
2022/08/23 09:03:19;;;;;;;0.97;0.97;;;;;;;16.76;82.28;97683.69;6223072;28;20303;-43
2022/08/23 09:06:42;;;;;;;1.10;0.90;;;;;;;16.73;82.27;97688.50;6222716;28;20242;-46
2022/08/23 09:10:02;;;;;;;2.07;0.90;;;;;;;16.62;82.45;97696.78;6223477;28;20251;-48
2022/08/23 09:13:41;;;;;;;1.80;0.70;;;;;;;16.39;82.99;97699.13;6222749;28;20224;-46
2022/08/23 09:16:53;;;;;;;1.00;1.00;;;;;;;16.23;83.80;97697.22;6224726;28;20232;-44
2022/08/23 09:20:01;;;;;;;1.20;1.10;;;;;;;16.11;84.17;97704.63;6215873;28;20747;-44
2022/08/23 09:23:13;;;;;;;2.40;1.30;;;;;;;16.07;84.97;97697.16;6207717;28;20581;-46
2022/08/23 09:26:25;;;;;;;2.73;1.50;;;;;;;16.00;84.98;97707.56;6222796;28;20598;-43
2022/08/23 09:29:49;;;;;;;2.20;1.67;;;;;;;15.96;85.06;97719.53;6222620;28;20232;-45
2022/08/23 09:32:54;;;;;;;2.00;1.80;;;;;;;15.90;86.10;97717.47;6206255;28;21756;-46
2022/08/23 09:36:03;;;;;;;2.23;2.07;;;;;;;15.86;85.76;97718.78;6223326;28;20766;-45
2022/08/23 09:39:23;;;;;;;2.00;1.90;;;;;;;15.81;85.61;97721.06;6196092;28;20232;-45
2022/08/23 09:42:38;;;;;;;2.10;1.90;;;;;;;15.90;86.26;97717.47;6205715;28;20223;-48
2022/08/23 09:45:48;;;;;;;2.17;2.00;;;;;;;15.92;85.69;97720.00;6205447;28;20374;-45
2022/08/23 09:48:54;;;;;;;2.13;1.97;;;;;;;15.95;86.16;97722.34;6206068;28;20719;-44
2022/08/23 09:52:20;;;;;;;3.17;2.27;;;;;;;16.00;86.03;97723.53;6203581;28;20436;-44
2022/08/23 09:55:34;;;;;;;1.90;1.80;;;;;;;16.01;86.13;97738.53;6205773;28;20248;-43
2022/08/23 09:58:43;;;;;;;1.87;1.70;;;;;;;15.99;85.81;97737.84;6205220;28;20659;-44
2022/08/23 10:01:55;;;;;;;2.67;2.17;;;;;;;16.05;86.06;97742.56;6203978;28;20295;-44
2022/08/23 10:05:05;;;;;;;2.50;2.30;;;;;;;15.94;85.84;97740.13;6205006;28;21000;-46
2022/08/23 10:08:27;;;;;;;1.90;1.73;;;;;;;15.94;85.66;97742.81;6189348;28;20239;-45
2022/08/23 10:11:44;;;;;;;2.30;2.20;;;;;;;15.88;86.41;97746.06;6205035;28;20229;-46
2022/08/23 10:14:48;;;;;;;3.03;2.40;;;;;;;15.91;86.37;97750.25;6206703;28;20323;-47
2022/08/23 10:18:09;;;;;;;2.20;2.00;;;;;;;15.90;85.72;97746.75;6206420;28;20246;-44
2022/08/23 10:22:05;;;;;;;2.20;2.10;;;;;;;15.87;85.97;97755.06;6171357;28;20225;-44
2022/08/23 10:25:41;;;;;;;3.00;2.33;;;;;;;15.85;85.90;97752.56;6202923;28;20328;-46
2022/08/23 10:32:27;;;;;;;2.50;2.30;;;;;;;15.81;85.94;97755.66;6202789;28;20283;-46
2022/08/23 10:35:41;;;;;;;2.50;2.30;;;;;;;15.91;85.69;97753.75;6186766;28;20340;-44
2022/08/23 10:38:51;;;;;;;3.17;2.33;;;;;;;16.01;86.01;97740.34;6187264;28;20272;-48
2022/08/23 10:42:26;;;;;;;3.50;2.40;;;;;;;15.99;85.58;97748.47;6185616;28;20237;-47
2022/08/23 10:45:35;;;;;;;2.67;2.40;;;;;;;16.02;85.36;97753.50;6185827;28;20621;-45
2022/08/23 10:48:57;;;;;;;2.63;2.23;;;;;;;16.17;85.13;97759.13;6186055;28;20690;-46
2022/08/23 10:52:06;;;;;;;2.60;2.10;;;;;;;16.28;84.55;97753.50;6165711;28;20704;-45
2022/08/23 10:55:34;;;;;;;2.50;1.87;;;;;;;16.37;83.99;97760.53;6185894;28;20684;-46
2022/08/23 10:58:51;;;;;;;3.67;1.80;;;;;;;16.63;83.33;97749.91;6201525;28;20290;-45
2022/08/23 11:02:02;;;;;;;1.80;1.70;;;;;;;16.94;82.48;97748.38;6203965;28;20229;-44
2022/08/23 11:05:34;;;;;;;2.23;1.70;;;;;;;17.15;79.98;97745.28;6203559;28;20240;-46
2022/08/23 11:08:46;;;;;;;1.67;1.57;;;;;;;17.46;79.77;97737.50;6203403;28;20232;-44
2022/08/23 11:12:12;;;;;;;1.60;1.50;;;;;;;17.84;79.04;97741.41;6203565;28;20239;-44
2022/08/23 11:15:22;;;;;;;3.23;1.67;;;;;;;18.06;78.19;97750.56;6155847;28;20716;-43
2022/08/23 11:18:48;;;;;;;2.60;1.60;;;;;;;18.20;78.69;97743.69;6199645;28;20631;-43
2022/08/23 11:22:54;;;;;;;1.27;1.23;;;;;;;18.44;76.52;97733.81;6181168;28;20237;-44
2022/08/23 11:25:56;;;;;;;1.83;1.40;;;;;;;18.52;76.60;97746.31;6174941;28;20242;-43
2022/08/23 11:29:09;;;;;;;1.20;1.13;;;;;;;18.77;75.49;97742.56;6202209;28;20923;-45
2022/08/23 11:32:39;;;;;;;1.73;1.27;;;;;;;19.43;72.62;97743.06;6204160;28;20232;-44
2022/08/23 11:35:50;;;;;;;1.00;1.00;;;;;;;19.41;71.92;97732.53;6203180;28;20236;-44
2022/08/23 11:38:54;;;;;;;1.53;1.00;;;;;;;19.34;71.76;97741.47;6202968;28;20295;-44
2022/08/23 11:42:02;;;;;;;1.00;1.00;;;;;;;19.68;71.56;97735.72;6202525;28;20723;-46
2022/08/23 11:45:26;;;;;;;1.30;1.20;;;;;;;19.82;70.32;97734.97;6202819;28;20704;-46
2022/08/23 11:48:39;;;;;;;1.23;1.13;;;;;;;19.92;70.32;97732.88;6202492;28;20229;-43
2022/08/23 11:51:51;;;;;;;1.03;0.97;;;;;;;19.96;70.26;97738.72;6195657;28;20236;-46
2022/08/23 11:55:05;;;;;;;1.00;0.93;;;;;;;19.99;70.08;97741.00;6203994;28;20708;-43
2022/08/23 11:58:41;;;;;;;0.87;0.83;;;;;;;20.12;70.24;97743.91;6203870;28;20519;-44
2022/08/23 12:01:52;;;;;;;0.90;0.90;;;;;;;19.98;68.63;97731.28;6203590;28;20312;-43
2022/08/23 12:04:54;;;;;;;1.33;1.00;;;;;;;19.83;70.05;97740.13;6186426;28;20322;-45
2022/08/23 12:08:02;;;;;;;2.87;1.00;;;;;;;19.91;69.99;97747.28;6203953;28;20279;-46
2022/08/23 12:11:08;;;;;;;1.87;1.20;;;;;;;19.86;69.77;97745.13;6204036;28;20232;-45
2022/08/23 12:14:29;;;;;;;1.20;1.10;;;;;;;19.73;70.42;97747.59;6203847;28;20707;-45
2022/08/23 12:17:34;;;;;;;1.10;1.03;;;;;;;19.46;70.35;97742.75;6203208;28;20232;-42
2022/08/23 12:20:42;;;;;;;1.10;1.10;;;;;;;19.57;70.85;97747.69;6191757;28;20236;-44
2022/08/23 12:23:56;;;;;;;4.60;1.00;;;;;;;19.83;70.83;97744.66;6201067;28;20236;-44
2022/08/23 12:27:31;;;;;;;1.00;1.00;;;;;;;19.77;70.36;97754.22;6203542;28;20718;-42
2022/08/23 12:30:49;;;;;;;1.73;1.00;;;;;;;19.37;70.29;97752.63;6203845;28;20236;-47
2022/08/23 12:34:33;;;;;;;1.00;0.90;;;;;;;19.15;71.56;97756.13;6201998;28;20691;-46
2022/08/23 12:37:38;;;;;;;1.20;1.07;;;;;;;18.96;71.41;97754.72;6203309;28;20319;-44
2022/08/23 12:40:45;;;;;;;0.80;0.80;;;;;;;18.80;72.52;97755.59;6203101;28;20260;-43
2022/08/23 12:44:04;;;;;;;1.97;1.30;;;;;;;18.68;72.95;97753.47;6204092;28;20232;-43
2022/08/23 12:47:16;;;;;;;0.80;0.80;;;;;;;18.67;73.38;97755.31;6199177;28;20301;-44
2022/08/23 12:50:26;;;;;;;1.00;0.90;;;;;;;18.68;73.54;97753.47;6182498;28;20275;-44
2022/08/23 12:53:41;;;;;;;0.83;0.83;;;;;;;18.73;73.27;97753.78;6189342;28;20315;-42
2022/08/23 12:56:48;;;;;;;1.87;1.30;;;;;;;18.72;73.15;97757.47;6204784;28;20708;-43
2022/08/23 12:59:57;;;;;;;1.00;1.00;;;;;;;18.87;72.52;97746.88;6203569;28;20355;-44
2022/08/23 13:03:29;;;;;;;1.97;0.93;;;;;;;18.99;72.44;97753.50;6203651;28;20327;-44
2022/08/23 13:06:48;;;;;;;1.20;1.10;;;;;;;19.10;72.37;97753.13;6203646;28;20229;-43
2022/08/23 13:09:52;;;;;;;0.97;0.83;;;;;;;19.23;72.10;97753.41;6203193;28;20233;-43
2022/08/23 13:12:56;;;;;;;0.97;0.90;;;;;;;19.09;71.58;97744.25;6203619;28;20718;-44
2022/08/23 13:16:03;;;;;;;1.77;0.90;;;;;;;19.15;71.59;97746.25;6207097;28;20322;-44
2022/08/23 13:19:13;;;;;;;0.70;0.70;;;;;;;19.55;71.18;97744.38;6208936;28;20232;-44
2022/08/23 13:22:23;;;;;;;0.70;0.70;;;;;;;19.85;70.13;97759.56;6199755;28;20759;-45
2022/08/23 13:25:38;;;;;;;1.07;0.80;;;;;;;20.01;69.44;97750.53;6208082;28;20240;-45
2022/08/23 13:28:40;;;;;;;0.63;0.63;;;;;;;20.03;69.37;97745.84;6207138;28;20256;-44
2022/08/23 13:31:54;;;;;;;0.70;0.70;;;;;;;20.01;68.57;97747.84;6207368;28;20244;-43
2022/08/23 13:35:22;;;;;;;0.83;0.60;;;;;;;20.47;67.63;97750.44;6207379;28;20763;-44
2022/08/23 13:38:30;;;;;;;0.83;0.63;;;;;;;22.23;63.37;97751.94;6207058;28;20319;-44
2022/08/23 13:41:35;;;;;;;0.40;0.40;;;;;;;23.17;58.48;97755.81;6207792;28;20303;-44
2022/08/23 13:44:41;;;;;;;0.40;0.40;;;;;;;23.72;56.81;97756.66;6207095;28;20267;-45
2022/08/23 13:47:48;;;;;;;0.60;0.60;;;;;;;24.25;56.35;97761.09;6207539;28;20362;-44
2022/08/23 13:50:50;;;;;;;2.93;0.80;;;;;;;24.44;55.31;97754.03;6194373;28;20350;-46
2022/08/23 13:53:55;;;;;;;0.70;0.70;;;;;;;24.72;53.36;97752.94;6206965;28;20235;-45
2022/08/23 13:57:06;;;;;;;0.60;0.60;;;;;;;25.61;51.09;97759.31;6206686;28;20645;-45
2022/08/23 14:00:09;;;;;;;0.50;0.50;;;;;;;26.59;47.71;97742.56;6206375;28;20318;-45
2022/08/23 14:03:14;;;;;;;0.50;0.50;;;;;;;25.46;49.66;97738.97;6207148;28;20303;-44
2022/08/23 14:06:16;;;;;;;1.33;0.83;;;;;;;25.94;48.79;97755.59;6206350;28;20223;-45
2022/08/23 14:09:19;;;;;;;0.50;0.50;;;;;;;27.73;44.46;97734.56;6206315;28;20912;-45
2022/08/23 14:12:26;;;;;;;0.87;0.60;;;;;;;29.60;40.69;97740.84;6206113;28;20231;-46
2022/08/23 14:15:28;;;;;;;0.80;0.70;;;;;;;30.61;38.45;97746.44;6206721;28;20236;-44
2022/08/23 14:18:50;;;;;;;0.60;0.60;;;;;;;29.38;40.01;97748.00;6207143;28;20228;-44
2022/08/23 14:22:15;;;;;;;0.70;0.70;;;;;;;28.13;42.54;97751.06;6186455;28;20240;-45
2022/08/23 14:25:17;;;;;;;0.73;0.50;;;;;;;27.34;45.56;97748.66;6211727;28;20240;-47
2022/08/23 14:28:23;;;;;;;0.90;0.70;;;;;;;25.02;49.65;97756.03;6210838;28;20244;-44
2022/08/23 14:31:25;;;;;;;1.27;0.73;;;;;;;24.06;53.24;97752.94;6206462;28;20228;-47
2022/08/23 14:34:28;;;;;;;0.60;0.60;;;;;;;23.62;54.37;97767.84;6206687;28;20310;-47
2022/08/23 14:37:30;;;;;;;0.60;0.60;;;;;;;23.64;54.73;97764.94;6205796;28;20243;-45
2022/08/23 14:40:56;;;;;;;1.57;0.70;;;;;;;23.19;55.96;97773.44;6206563;28;20765;-46
2022/08/23 14:44:00;;;;;;;0.60;0.60;;;;;;;22.46;57.59;97769.47;6205277;28;20244;-46
2022/08/23 14:47:04;;;;;;;1.07;0.70;;;;;;;21.67;60.37;97775.97;6205030;28;20239;-45
2022/08/23 14:50:09;;;;;;;1.00;0.73;;;;;;;21.24;62.27;97778.59;6204864;28;20271;-50
2022/08/23 14:53:16;;;;;;;1.80;0.80;;;;;;;20.68;63.39;97782.75;6203340;28;20330;-48